sensor_id;sensor_type;location;lat;lon;timestamp;P1;durP1;ratioP1;P2;durP2;ratioP2
21032;SDS011;10675;47.976;7.824;2023-06-10T00:00:11;4.28;;;3.22;;
21032;SDS011;10675;47.976;7.824;2023-06-10T00:02:40;5.15;;;3.08;;
21032;SDS011;10675;47.976;7.824;2023-06-10T00:05:06;5.10;;;3.22;;
21032;SDS011;10675;47.976;7.824;2023-06-10T00:07:33;3.60;;;3.17;;
21032;SDS011;10675;47.976;7.824;2023-06-10T00:10:02;3.13;;;2.80;;
21032;SDS011;10675;47.976;7.824;2023-06-10T00:12:31;3.35;;;2.47;;
21032;SDS011;10675;47.976;7.824;2023-06-10T00:15:02;3.22;;;2.63;;
21032;SDS011;10675;47.976;7.824;2023-06-10T00:17:28;3.75;;;3.13;;
21032;SDS011;10675;47.976;7.824;2023-06-10T00:19:54;3.10;;;2.80;;
21032;SDS011;10675;47.976;7.824;2023-06-10T00:22:20;3.30;;;3.00;;
21032;SDS011;10675;47.976;7.824;2023-06-10T00:24:47;3.78;;;2.80;;
21032;SDS011;10675;47.976;7.824;2023-06-10T00:27:12;2.83;;;2.60;;
21032;SDS011;10675;47.976;7.824;2023-06-10T00:29:38;2.90;;;2.60;;
21032;SDS011;10675;47.976;7.824;2023-06-10T00:32:04;2.92;;;2.63;;
21032;SDS011;10675;47.976;7.824;2023-06-10T00:34:30;2.83;;;2.60;;
21032;SDS011;10675;47.976;7.824;2023-06-10T00:36:57;2.95;;;2.75;;
21032;SDS011;10675;47.976;7.824;2023-06-10T00:39:22;3.13;;;2.63;;
21032;SDS011;10675;47.976;7.824;2023-06-10T00:41:48;3.58;;;2.92;;
21032;SDS011;10675;47.976;7.824;2023-06-10T00:44:13;3.03;;;2.80;;
21032;SDS011;10675;47.976;7.824;2023-06-10T00:46:39;3.03;;;2.70;;
21032;SDS011;10675;47.976;7.824;2023-06-10T00:49:05;3.75;;;3.10;;
21032;SDS011;10675;47.976;7.824;2023-06-10T00:51:31;2.88;;;2.58;;
21032;SDS011;10675;47.976;7.824;2023-06-10T00:53:56;2.90;;;2.60;;
21032;SDS011;10675;47.976;7.824;2023-06-10T00:56:22;3.03;;;2.70;;
21032;SDS011;10675;47.976;7.824;2023-06-10T00:58:48;3.83;;;2.90;;
21032;SDS011;10675;47.976;7.824;2023-06-10T01:01:13;4.07;;;2.70;;
21032;SDS011;10675;47.976;7.824;2023-06-10T01:03:39;3.47;;;3.13;;
21032;SDS011;10675;47.976;7.824;2023-06-10T01:06:14;3.10;;;2.70;;
21032;SDS011;10675;47.976;7.824;2023-06-10T01:08:46;3.10;;;2.80;;
21032;SDS011;10675;47.976;7.824;2023-06-10T01:11:29;2.80;;;2.60;;
21032;SDS011;10675;47.976;7.824;2023-06-10T01:14:05;2.85;;;2.65;;
21032;SDS011;10675;47.976;7.824;2023-06-10T01:16:32;3.63;;;2.80;;
21032;SDS011;10675;47.976;7.824;2023-06-10T01:19:01;4.25;;;3.67;;
21032;SDS011;10675;47.976;7.824;2023-06-10T01:21:26;4.32;;;3.30;;
21032;SDS011;10675;47.976;7.824;2023-06-10T01:23:52;4.22;;;3.00;;
21032;SDS011;10675;47.976;7.824;2023-06-10T01:26:20;3.00;;;2.70;;
21032;SDS011;10675;47.976;7.824;2023-06-10T01:28:52;3.50;;;3.17;;
21032;SDS011;10675;47.976;7.824;2023-06-10T01:34:01;4.10;;;2.93;;
21032;SDS011;10675;47.976;7.824;2023-06-10T01:36:27;4.73;;;3.00;;
21032;SDS011;10675;47.976;7.824;2023-06-10T01:38:53;5.90;;;3.10;;
21032;SDS011;10675;47.976;7.824;2023-06-10T01:41:20;8.50;;;3.50;;
21032;SDS011;10675;47.976;7.824;2023-06-10T01:43:47;7.37;;;3.17;;
21032;SDS011;10675;47.976;7.824;2023-06-10T01:46:14;3.70;;;3.27;;
21032;SDS011;10675;47.976;7.824;2023-06-10T01:48:41;4.00;;;3.03;;
21032;SDS011;10675;47.976;7.824;2023-06-10T01:51:07;7.33;;;2.80;;
21032;SDS011;10675;47.976;7.824;2023-06-10T01:53:33;3.37;;;3.03;;
21032;SDS011;10675;47.976;7.824;2023-06-10T01:55:58;3.57;;;3.13;;
21032;SDS011;10675;47.976;7.824;2023-06-10T01:58:24;3.20;;;2.93;;
21032;SDS011;10675;47.976;7.824;2023-06-10T02:00:50;5.10;;;3.00;;
21032;SDS011;10675;47.976;7.824;2023-06-10T02:03:16;3.00;;;2.80;;
21032;SDS011;10675;47.976;7.824;2023-06-10T02:05:41;4.17;;;2.73;;
21032;SDS011;10675;47.976;7.824;2023-06-10T02:08:07;5.93;;;3.17;;
21032;SDS011;10675;47.976;7.824;2023-06-10T02:10:32;3.40;;;3.10;;
21032;SDS011;10675;47.976;7.824;2023-06-10T02:12:58;6.70;;;3.40;;
21032;SDS011;10675;47.976;7.824;2023-06-10T02:15:23;6.10;;;2.90;;
21032;SDS011;10675;47.976;7.824;2023-06-10T02:17:49;3.60;;;3.30;;
21032;SDS011;10675;47.976;7.824;2023-06-10T02:20:15;3.33;;;3.00;;
21032;SDS011;10675;47.976;7.824;2023-06-10T02:22:41;5.00;;;3.13;;
21032;SDS011;10675;47.976;7.824;2023-06-10T02:25:06;3.50;;;3.20;;
21032;SDS011;10675;47.976;7.824;2023-06-10T02:27:33;3.50;;;2.83;;
21032;SDS011;10675;47.976;7.824;2023-06-10T02:29:58;3.23;;;2.93;;
21032;SDS011;10675;47.976;7.824;2023-06-10T02:32:24;4.83;;;3.00;;
21032;SDS011;10675;47.976;7.824;2023-06-10T02:34:50;4.53;;;3.10;;
21032;SDS011;10675;47.976;7.824;2023-06-10T02:37:16;5.13;;;3.30;;
21032;SDS011;10675;47.976;7.824;2023-06-10T02:39:41;3.30;;;3.00;;
21032;SDS011;10675;47.976;7.824;2023-06-10T02:42:07;3.77;;;3.30;;
21032;SDS011;10675;47.976;7.824;2023-06-10T02:44:33;5.03;;;3.37;;
21032;SDS011;10675;47.976;7.824;2023-06-10T02:46:58;4.87;;;3.13;;
21032;SDS011;10675;47.976;7.824;2023-06-10T02:49:24;3.50;;;3.20;;
21032;SDS011;10675;47.976;7.824;2023-06-10T02:51:52;3.57;;;2.90;;
21032;SDS011;10675;47.976;7.824;2023-06-10T02:54:19;4.63;;;3.37;;
21032;SDS011;10675;47.976;7.824;2023-06-10T02:56:45;3.87;;;3.23;;
21032;SDS011;10675;47.976;7.824;2023-06-10T02:59:12;4.70;;;3.10;;
21032;SDS011;10675;47.976;7.824;2023-06-10T03:01:38;4.43;;;3.03;;
21032;SDS011;10675;47.976;7.824;2023-06-10T03:04:04;4.40;;;3.27;;
21032;SDS011;10675;47.976;7.824;2023-06-10T03:06:30;3.00;;;2.73;;
21032;SDS011;10675;47.976;7.824;2023-06-10T03:08:59;13.17;;;3.20;;
21032;SDS011;10675;47.976;7.824;2023-06-10T03:11:25;6.17;;;3.50;;
21032;SDS011;10675;47.976;7.824;2023-06-10T03:13:51;3.67;;;3.10;;
21032;SDS011;10675;47.976;7.824;2023-06-10T03:16:18;3.30;;;3.00;;
21032;SDS011;10675;47.976;7.824;2023-06-10T03:18:44;3.53;;;3.10;;
21032;SDS011;10675;47.976;7.824;2023-06-10T03:21:09;3.70;;;3.40;;
21032;SDS011;10675;47.976;7.824;2023-06-10T03:23:35;6.83;;;3.80;;
21032;SDS011;10675;47.976;7.824;2023-06-10T03:26:01;3.63;;;3.10;;
21032;SDS011;10675;47.976;7.824;2023-06-10T03:28:27;3.60;;;3.27;;
21032;SDS011;10675;47.976;7.824;2023-06-10T03:30:52;3.40;;;3.10;;
21032;SDS011;10675;47.976;7.824;2023-06-10T03:33:18;5.17;;;3.60;;
21032;SDS011;10675;47.976;7.824;2023-06-10T03:35:43;3.70;;;3.33;;
21032;SDS011;10675;47.976;7.824;2023-06-10T03:38:09;3.90;;;3.47;;
21032;SDS011;10675;47.976;7.824;2023-06-10T03:40:34;3.80;;;3.00;;
21032;SDS011;10675;47.976;7.824;2023-06-10T03:43:00;3.53;;;3.23;;
21032;SDS011;10675;47.976;7.824;2023-06-10T03:45:25;4.87;;;3.37;;
21032;SDS011;10675;47.976;7.824;2023-06-10T03:47:53;3.40;;;3.10;;
21032;SDS011;10675;47.976;7.824;2023-06-10T03:50:19;4.77;;;3.17;;
21032;SDS011;10675;47.976;7.824;2023-06-10T03:52:44;3.40;;;3.10;;
21032;SDS011;10675;47.976;7.824;2023-06-10T03:55:11;3.33;;;3.07;;
21032;SDS011;10675;47.976;7.824;2023-06-10T03:57:38;3.70;;;3.20;;
21032;SDS011;10675;47.976;7.824;2023-06-10T04:00:04;4.47;;;3.50;;
21032;SDS011;10675;47.976;7.824;2023-06-10T04:02:37;3.40;;;3.10;;
21032;SDS011;10675;47.976;7.824;2023-06-10T04:05:11;4.27;;;3.03;;
21032;SDS011;10675;47.976;7.824;2023-06-10T04:07:37;5.10;;;3.27;;
21032;SDS011;10675;47.976;7.824;2023-06-10T04:10:05;4.77;;;3.30;;
21032;SDS011;10675;47.976;7.824;2023-06-10T04:12:31;3.40;;;2.80;;
21032;SDS011;10675;47.976;7.824;2023-06-10T04:14:57;4.90;;;3.70;;
21032;SDS011;10675;47.976;7.824;2023-06-10T04:17:23;4.87;;;3.73;;
21032;SDS011;10675;47.976;7.824;2023-06-10T04:19:49;4.20;;;3.40;;
21032;SDS011;10675;47.976;7.824;2023-06-10T04:22:15;7.20;;;3.53;;
21032;SDS011;10675;47.976;7.824;2023-06-10T04:24:41;4.93;;;3.30;;
21032;SDS011;10675;47.976;7.824;2023-06-10T04:27:07;3.73;;;3.40;;
21032;SDS011;10675;47.976;7.824;2023-06-10T04:29:33;3.80;;;3.40;;
21032;SDS011;10675;47.976;7.824;2023-06-10T04:31:59;3.93;;;3.50;;
21032;SDS011;10675;47.976;7.824;2023-06-10T04:34:26;3.63;;;3.30;;
21032;SDS011;10675;47.976;7.824;2023-06-10T04:36:52;3.73;;;3.30;;
21032;SDS011;10675;47.976;7.824;2023-06-10T04:39:18;5.07;;;3.27;;
21032;SDS011;10675;47.976;7.824;2023-06-10T04:41:43;4.43;;;3.43;;
21032;SDS011;10675;47.976;7.824;2023-06-10T04:44:09;5.13;;;3.57;;
21032;SDS011;10675;47.976;7.824;2023-06-10T04:46:35;3.80;;;3.17;;
21032;SDS011;10675;47.976;7.824;2023-06-10T04:49:01;3.40;;;3.10;;
21032;SDS011;10675;47.976;7.824;2023-06-10T04:51:27;4.83;;;3.80;;
21032;SDS011;10675;47.976;7.824;2023-06-10T04:53:53;5.37;;;3.37;;
21032;SDS011;10675;47.976;7.824;2023-06-10T04:56:18;3.73;;;3.40;;
21032;SDS011;10675;47.976;7.824;2023-06-10T04:58:45;4.17;;;3.77;;
21032;SDS011;10675;47.976;7.824;2023-06-10T05:01:10;4.00;;;3.00;;
21032;SDS011;10675;47.976;7.824;2023-06-10T05:03:36;4.17;;;3.33;;
21032;SDS011;10675;47.976;7.824;2023-06-10T05:06:01;3.73;;;3.43;;
21032;SDS011;10675;47.976;7.824;2023-06-10T05:08:27;4.43;;;3.43;;
21032;SDS011;10675;47.976;7.824;2023-06-10T05:10:52;4.03;;;3.50;;
21032;SDS011;10675;47.976;7.824;2023-06-10T05:13:18;3.70;;;3.40;;
21032;SDS011;10675;47.976;7.824;2023-06-10T05:15:43;3.90;;;3.40;;
21032;SDS011;10675;47.976;7.824;2023-06-10T05:18:10;3.77;;;3.30;;
21032;SDS011;10675;47.976;7.824;2023-06-10T05:20:37;3.67;;;3.20;;
21032;SDS011;10675;47.976;7.824;2023-06-10T05:23:03;4.13;;;3.43;;
21032;SDS011;10675;47.976;7.824;2023-06-10T05:25:32;4.87;;;3.67;;
21032;SDS011;10675;47.976;7.824;2023-06-10T05:27:58;3.67;;;3.38;;
21032;SDS011;10675;47.976;7.824;2023-06-10T05:30:23;6.03;;;4.00;;
21032;SDS011;10675;47.976;7.824;2023-06-10T05:32:50;3.97;;;3.47;;
21032;SDS011;10675;47.976;7.824;2023-06-10T05:35:16;5.07;;;3.70;;
21032;SDS011;10675;47.976;7.824;2023-06-10T05:37:42;5.80;;;3.65;;
21032;SDS011;10675;47.976;7.824;2023-06-10T05:40:08;4.35;;;3.53;;
21032;SDS011;10675;47.976;7.824;2023-06-10T05:42:34;4.78;;;4.10;;
21032;SDS011;10675;47.976;7.824;2023-06-10T05:45:00;4.03;;;3.60;;
21032;SDS011;10675;47.976;7.824;2023-06-10T05:47:26;4.20;;;3.80;;
21032;SDS011;10675;47.976;7.824;2023-06-10T05:49:51;5.25;;;3.83;;
21032;SDS011;10675;47.976;7.824;2023-06-10T05:52:17;6.13;;;3.95;;
21032;SDS011;10675;47.976;7.824;2023-06-10T05:54:43;4.40;;;3.95;;
21032;SDS011;10675;47.976;7.824;2023-06-10T05:57:08;4.68;;;3.83;;
21032;SDS011;10675;47.976;7.824;2023-06-10T05:59:35;5.32;;;4.38;;
21032;SDS011;10675;47.976;7.824;2023-06-10T06:02:00;5.35;;;4.00;;
21032;SDS011;10675;47.976;7.824;2023-06-10T06:04:26;4.88;;;4.20;;
21032;SDS011;10675;47.976;7.824;2023-06-10T06:06:51;4.95;;;4.38;;
21032;SDS011;10675;47.976;7.824;2023-06-10T06:09:17;5.85;;;4.20;;
21032;SDS011;10675;47.976;7.824;2023-06-10T06:11:42;4.30;;;4.00;;
21032;SDS011;10675;47.976;7.824;2023-06-10T06:14:08;4.18;;;3.78;;
21032;SDS011;10675;47.976;7.824;2023-06-10T06:16:33;6.32;;;3.50;;
21032;SDS011;10675;47.976;7.824;2023-06-10T06:18:59;5.40;;;3.63;;
21032;SDS011;10675;47.976;7.824;2023-06-10T06:21:25;6.32;;;3.88;;
21032;SDS011;10675;47.976;7.824;2023-06-10T06:23:50;5.97;;;3.35;;
21032;SDS011;10675;47.976;7.824;2023-06-10T06:26:16;4.85;;;3.53;;
21032;SDS011;10675;47.976;7.824;2023-06-10T06:28:41;5.50;;;3.85;;
21032;SDS011;10675;47.976;7.824;2023-06-10T06:31:07;3.30;;;3.00;;
21032;SDS011;10675;47.976;7.824;2023-06-10T06:33:32;4.13;;;3.30;;
21032;SDS011;10675;47.976;7.824;2023-06-10T06:35:58;4.93;;;3.72;;
21032;SDS011;10675;47.976;7.824;2023-06-10T06:38:25;3.90;;;3.30;;
21032;SDS011;10675;47.976;7.824;2023-06-10T06:40:51;6.05;;;3.83;;
21032;SDS011;10675;47.976;7.824;2023-06-10T06:43:16;4.43;;;4.03;;
21032;SDS011;10675;47.976;7.824;2023-06-10T06:45:43;4.28;;;3.88;;
21032;SDS011;10675;47.976;7.824;2023-06-10T06:48:10;3.67;;;3.22;;
21032;SDS011;10675;47.976;7.824;2023-06-10T06:50:36;4.53;;;3.38;;
21032;SDS011;10675;47.976;7.824;2023-06-10T06:53:02;5.88;;;3.75;;
21032;SDS011;10675;47.976;7.824;2023-06-10T06:55:28;4.93;;;3.67;;
21032;SDS011;10675;47.976;7.824;2023-06-10T06:57:54;5.45;;;3.83;;
21032;SDS011;10675;47.976;7.824;2023-06-10T07:00:20;4.90;;;4.05;;
21032;SDS011;10675;47.976;7.824;2023-06-10T07:02:46;3.80;;;3.50;;
21032;SDS011;10675;47.976;7.824;2023-06-10T07:05:11;3.92;;;3.40;;
21032;SDS011;10675;47.976;7.824;2023-06-10T07:07:37;3.60;;;3.28;;
21032;SDS011;10675;47.976;7.824;2023-06-10T07:10:03;5.53;;;3.45;;
21032;SDS011;10675;47.976;7.824;2023-06-10T07:12:28;4.03;;;3.65;;
21032;SDS011;10675;47.976;7.824;2023-06-10T07:14:54;4.32;;;3.92;;
21032;SDS011;10675;47.976;7.824;2023-06-10T07:17:19;3.63;;;3.28;;
21032;SDS011;10675;47.976;7.824;2023-06-10T07:19:45;4.10;;;3.70;;
21032;SDS011;10675;47.976;7.824;2023-06-10T07:22:11;4.38;;;3.70;;
21032;SDS011;10675;47.976;7.824;2023-06-10T07:24:37;8.45;;;4.03;;
21032;SDS011;10675;47.976;7.824;2023-06-10T07:27:02;3.88;;;3.47;;
21032;SDS011;10675;47.976;7.824;2023-06-10T07:29:28;3.60;;;2.90;;
21032;SDS011;10675;47.976;7.824;2023-06-10T07:31:53;3.88;;;3.47;;
21032;SDS011;10675;47.976;7.824;2023-06-10T07:34:19;4.93;;;3.88;;
21032;SDS011;10675;47.976;7.824;2023-06-10T07:36:45;8.98;;;4.05;;
21032;SDS011;10675;47.976;7.824;2023-06-10T07:39:10;3.90;;;3.60;;
21032;SDS011;10675;47.976;7.824;2023-06-10T07:41:36;6.07;;;3.67;;
21032;SDS011;10675;47.976;7.824;2023-06-10T07:44:02;4.50;;;3.40;;
21032;SDS011;10675;47.976;7.824;2023-06-10T07:46:27;5.13;;;3.35;;
21032;SDS011;10675;47.976;7.824;2023-06-10T07:48:53;4.72;;;3.35;;
21032;SDS011;10675;47.976;7.824;2023-06-10T07:51:20;4.10;;;3.70;;
21032;SDS011;10675;47.976;7.824;2023-06-10T07:53:46;5.35;;;3.58;;
21032;SDS011;10675;47.976;7.824;2023-06-10T07:56:11;4.00;;;3.60;;
21032;SDS011;10675;47.976;7.824;2023-06-10T07:58:37;3.97;;;3.67;;
21032;SDS011;10675;47.976;7.824;2023-06-10T08:01:03;4.70;;;4.13;;
21032;SDS011;10675;47.976;7.824;2023-06-10T08:03:28;4.32;;;3.92;;
21032;SDS011;10675;47.976;7.824;2023-06-10T08:05:54;4.43;;;3.70;;
21032;SDS011;10675;47.976;7.824;2023-06-10T08:08:19;5.07;;;3.83;;
21032;SDS011;10675;47.976;7.824;2023-06-10T08:10:45;4.15;;;3.33;;
21032;SDS011;10675;47.976;7.824;2023-06-10T08:13:10;4.72;;;3.92;;
21032;SDS011;10675;47.976;7.824;2023-06-10T08:15:36;3.95;;;3.63;;
21032;SDS011;10675;47.976;7.824;2023-06-10T08:18:01;3.90;;;3.53;;
21032;SDS011;10675;47.976;7.824;2023-06-10T08:20:27;4.20;;;3.55;;
21032;SDS011;10675;47.976;7.824;2023-06-10T08:22:52;5.30;;;3.60;;
21032;SDS011;10675;47.976;7.824;2023-06-10T08:25:18;3.67;;;3.38;;
21032;SDS011;10675;47.976;7.824;2023-06-10T08:27:44;5.78;;;3.50;;
21032;SDS011;10675;47.976;7.824;2023-06-10T08:30:09;4.28;;;3.88;;
21032;SDS011;10675;47.976;7.824;2023-06-10T08:32:38;4.65;;;3.88;;
21032;SDS011;10675;47.976;7.824;2023-06-10T08:35:04;4.25;;;3.85;;
21032;SDS011;10675;47.976;7.824;2023-06-10T08:37:30;4.45;;;3.83;;
21032;SDS011;10675;47.976;7.824;2023-06-10T08:39:55;4.20;;;3.83;;
21032;SDS011;10675;47.976;7.824;2023-06-10T08:42:28;3.80;;;3.40;;
21032;SDS011;10675;47.976;7.824;2023-06-10T08:44:58;3.92;;;3.47;;
21032;SDS011;10675;47.976;7.824;2023-06-10T08:47:27;4.93;;;4.03;;
21032;SDS011;10675;47.976;7.824;2023-06-10T08:49:56;3.92;;;3.58;;
21032;SDS011;10675;47.976;7.824;2023-06-10T08:52:26;4.55;;;4.13;;
21032;SDS011;10675;47.976;7.824;2023-06-10T08:54:56;5.30;;;3.60;;
21032;SDS011;10675;47.976;7.824;2023-06-10T08:57:24;3.88;;;3.58;;
21032;SDS011;10675;47.976;7.824;2023-06-10T08:59:51;4.20;;;3.47;;
21032;SDS011;10675;47.976;7.824;2023-06-10T09:02:18;4.97;;;3.78;;
21032;SDS011;10675;47.976;7.824;2023-06-10T09:04:45;4.18;;;3.78;;
21032;SDS011;10675;47.976;7.824;2023-06-10T09:07:11;5.07;;;3.80;;
21032;SDS011;10675;47.976;7.824;2023-06-10T09:09:39;4.13;;;3.78;;
21032;SDS011;10675;47.976;7.824;2023-06-10T09:12:06;4.78;;;4.32;;
21032;SDS011;10675;47.976;7.824;2023-06-10T09:14:32;4.05;;;3.72;;
21032;SDS011;10675;47.976;7.824;2023-06-10T09:16:58;4.15;;;3.75;;
21032;SDS011;10675;47.976;7.824;2023-06-10T09:19:24;5.63;;;4.10;;
21032;SDS011;10675;47.976;7.824;2023-06-10T09:21:51;4.05;;;3.70;;
21032;SDS011;10675;47.976;7.824;2023-06-10T09:24:17;4.30;;;3.90;;
21032;SDS011;10675;47.976;7.824;2023-06-10T09:26:43;4.63;;;4.22;;
21032;SDS011;10675;47.976;7.824;2023-06-10T09:29:10;4.28;;;3.88;;
21032;SDS011;10675;47.976;7.824;2023-06-10T09:31:37;4.57;;;4.18;;
21032;SDS011;10675;47.976;7.824;2023-06-10T09:36:39;4.60;;;4.20;;
21032;SDS011;10675;47.976;7.824;2023-06-10T09:39:15;5.18;;;3.92;;
21032;SDS011;10675;47.976;7.824;2023-06-10T09:41:42;4.68;;;4.13;;
21032;SDS011;10675;47.976;7.824;2023-06-10T09:44:11;4.95;;;4.50;;
21032;SDS011;10675;47.976;7.824;2023-06-10T09:46:38;4.97;;;4.13;;
21032;SDS011;10675;47.976;7.824;2023-06-10T09:49:03;5.68;;;4.38;;
21032;SDS011;10675;47.976;7.824;2023-06-10T09:51:29;4.82;;;4.32;;
21032;SDS011;10675;47.976;7.824;2023-06-10T09:53:54;5.07;;;4.57;;
21032;SDS011;10675;47.976;7.824;2023-06-10T09:56:20;4.90;;;4.40;;
21032;SDS011;10675;47.976;7.824;2023-06-10T09:58:49;4.10;;;3.80;;
21032;SDS011;10675;47.976;7.824;2023-06-10T10:01:18;5.38;;;4.45;;
21032;SDS011;10675;47.976;7.824;2023-06-10T10:03:44;4.93;;;4.50;;
21032;SDS011;10675;47.976;7.824;2023-06-10T10:06:14;4.57;;;4.22;;
21032;SDS011;10675;47.976;7.824;2023-06-10T10:08:41;5.45;;;4.85;;
21032;SDS011;10675;47.976;7.824;2023-06-10T10:11:07;7.25;;;4.47;;
21032;SDS011;10675;47.976;7.824;2023-06-10T10:13:33;5.05;;;4.55;;
21032;SDS011;10675;47.976;7.824;2023-06-10T10:16:00;6.95;;;4.68;;
21032;SDS011;10675;47.976;7.824;2023-06-10T10:18:29;6.70;;;5.00;;
21032;SDS011;10675;47.976;7.824;2023-06-10T10:20:57;5.10;;;4.65;;
21032;SDS011;10675;47.976;7.824;2023-06-10T10:23:49;5.30;;;4.80;;
21032;SDS011;10675;47.976;7.824;2023-06-10T10:26:19;5.45;;;4.90;;
21032;SDS011;10675;47.976;7.824;2023-06-10T10:29:04;5.35;;;4.85;;
21032;SDS011;10675;47.976;7.824;2023-06-10T10:31:30;7.38;;;5.10;;
21032;SDS011;10675;47.976;7.824;2023-06-10T10:34:00;7.88;;;5.32;;
21032;SDS011;10675;47.976;7.824;2023-06-10T10:36:27;6.68;;;4.53;;
21032;SDS011;10675;47.976;7.824;2023-06-10T10:38:53;6.68;;;5.82;;
21032;SDS011;10675;47.976;7.824;2023-06-10T10:41:19;9.65;;;5.65;;
21032;SDS011;10675;47.976;7.824;2023-06-10T10:43:46;5.93;;;4.75;;
21032;SDS011;10675;47.976;7.824;2023-06-10T10:46:13;5.47;;;4.97;;
21032;SDS011;10675;47.976;7.824;2023-06-10T10:48:41;5.70;;;4.97;;
21032;SDS011;10675;47.976;7.824;2023-06-10T10:51:08;7.10;;;5.13;;
21032;SDS011;10675;47.976;7.824;2023-06-10T10:53:34;7.10;;;5.53;;
21032;SDS011;10675;47.976;7.824;2023-06-10T10:56:08;6.82;;;5.00;;
21032;SDS011;10675;47.976;7.824;2023-06-10T10:58:38;5.45;;;4.75;;
21032;SDS011;10675;47.976;7.824;2023-06-10T11:01:11;7.10;;;5.10;;
21032;SDS011;10675;47.976;7.824;2023-06-10T11:03:44;6.05;;;5.45;;
21032;SDS011;10675;47.976;7.824;2023-06-10T11:06:12;5.55;;;4.70;;
21032;SDS011;10675;47.976;7.824;2023-06-10T11:11:17;5.78;;;5.28;;
21032;SDS011;10675;47.976;7.824;2023-06-10T11:13:58;6.38;;;4.68;;
21032;SDS011;10675;47.976;7.824;2023-06-10T11:16:27;5.90;;;5.28;;
21032;SDS011;10675;47.976;7.824;2023-06-10T11:18:54;5.45;;;4.88;;
21032;SDS011;10675;47.976;7.824;2023-06-10T11:21:20;6.07;;;5.55;;
21032;SDS011;10675;47.976;7.824;2023-06-10T11:23:47;8.13;;;5.15;;
21032;SDS011;10675;47.976;7.824;2023-06-10T11:31:23;5.05;;;4.65;;
21032;SDS011;10675;47.976;7.824;2023-06-10T11:33:53;8.60;;;5.20;;
21032;SDS011;10675;47.976;7.824;2023-06-10T11:36:31;6.28;;;5.05;;
21032;SDS011;10675;47.976;7.824;2023-06-10T11:38:59;6.35;;;5.35;;
21032;SDS011;10675;47.976;7.824;2023-06-10T11:41:29;5.30;;;4.80;;
21032;SDS011;10675;47.976;7.824;2023-06-10T11:44:29;5.40;;;4.65;;
21032;SDS011;10675;47.976;7.824;2023-06-10T11:46:52;4.63;;;4.20;;
21032;SDS011;10675;47.976;7.824;2023-06-10T11:49:18;7.43;;;4.82;;
21032;SDS011;10675;47.976;7.824;2023-06-10T11:51:45;5.75;;;5.03;;
21032;SDS011;10675;47.976;7.824;2023-06-10T11:54:14;4.70;;;4.30;;
21032;SDS011;10675;47.976;7.824;2023-06-10T11:56:41;5.60;;;5.10;;
21032;SDS011;10675;47.976;7.824;2023-06-10T11:59:06;5.13;;;4.68;;
21032;SDS011;10675;47.976;7.824;2023-06-10T12:01:33;6.50;;;4.70;;
21032;SDS011;10675;47.976;7.824;2023-06-10T12:06:38;6.00;;;4.82;;
21032;SDS011;10675;47.976;7.824;2023-06-10T12:09:05;5.07;;;4.60;;
21032;SDS011;10675;47.976;7.824;2023-06-10T12:11:31;5.22;;;4.53;;
21032;SDS011;10675;47.976;7.824;2023-06-10T12:13:58;7.85;;;4.57;;
21032;SDS011;10675;47.976;7.824;2023-06-10T12:16:23;4.55;;;4.25;;
21032;SDS011;10675;47.976;7.824;2023-06-10T12:18:49;5.05;;;4.32;;
21032;SDS011;10675;47.976;7.824;2023-06-10T12:21:15;8.68;;;5.63;;
21032;SDS011;10675;47.976;7.824;2023-06-10T12:23:59;6.13;;;4.30;;
21032;SDS011;10675;47.976;7.824;2023-06-10T12:26:35;5.38;;;4.88;;
21032;SDS011;10675;47.976;7.824;2023-06-10T12:29:27;5.28;;;4.60;;
21032;SDS011;10675;47.976;7.824;2023-06-10T12:32:04;12.57;;;4.43;;
21032;SDS011;10675;47.976;7.824;2023-06-10T12:34:32;4.57;;;4.05;;
21032;SDS011;10675;47.976;7.824;2023-06-10T12:36:59;8.23;;;4.53;;
21032;SDS011;10675;47.976;7.824;2023-06-10T12:39:26;5.15;;;3.95;;
21032;SDS011;10675;47.976;7.824;2023-06-10T12:41:52;6.50;;;4.55;;
21032;SDS011;10675;47.976;7.824;2023-06-10T12:44:18;5.50;;;4.30;;
21032;SDS011;10675;47.976;7.824;2023-06-10T12:46:44;4.47;;;4.07;;
21032;SDS011;10675;47.976;7.824;2023-06-10T12:49:19;4.72;;;4.28;;
21032;SDS011;10675;47.976;7.824;2023-06-10T12:51:45;5.15;;;4.60;;
21032;SDS011;10675;47.976;7.824;2023-06-10T12:54:12;5.28;;;4.50;;
21032;SDS011;10675;47.976;7.824;2023-06-10T12:56:38;5.55;;;4.68;;
21032;SDS011;10675;47.976;7.824;2023-06-10T12:59:04;5.10;;;4.57;;
21032;SDS011;10675;47.976;7.824;2023-06-10T13:01:29;4.75;;;4.32;;
21032;SDS011;10675;47.976;7.824;2023-06-10T13:03:56;5.78;;;5.28;;
21032;SDS011;10675;47.976;7.824;2023-06-10T13:06:22;5.07;;;4.57;;
21032;SDS011;10675;47.976;7.824;2023-06-10T13:08:48;7.28;;;4.70;;
21032;SDS011;10675;47.976;7.824;2023-06-10T13:11:13;5.68;;;4.45;;
21032;SDS011;10675;47.976;7.824;2023-06-10T13:13:39;6.85;;;4.75;;
21032;SDS011;10675;47.976;7.824;2023-06-10T13:16:05;4.78;;;4.38;;
21032;SDS011;10675;47.976;7.824;2023-06-10T13:18:32;5.10;;;4.70;;
21032;SDS011;10675;47.976;7.824;2023-06-10T13:21:02;6.10;;;4.57;;
21032;SDS011;10675;47.976;7.824;2023-06-10T13:23:28;5.35;;;4.90;;
21032;SDS011;10675;47.976;7.824;2023-06-10T13:25:54;5.85;;;5.18;;
21032;SDS011;10675;47.976;7.824;2023-06-10T13:28:20;5.82;;;5.32;;
21032;SDS011;10675;47.976;7.824;2023-06-10T13:30:46;6.03;;;5.25;;
21032;SDS011;10675;47.976;7.824;2023-06-10T13:33:11;6.80;;;5.60;;
21032;SDS011;10675;47.976;7.824;2023-06-10T13:35:37;6.55;;;5.03;;
21032;SDS011;10675;47.976;7.824;2023-06-10T13:38:03;7.50;;;5.05;;
21032;SDS011;10675;47.976;7.824;2023-06-10T13:40:28;5.35;;;4.78;;
21032;SDS011;10675;47.976;7.824;2023-06-10T13:42:54;6.38;;;5.53;;
21032;SDS011;10675;47.976;7.824;2023-06-10T13:45:20;6.25;;;4.88;;
21032;SDS011;10675;47.976;7.824;2023-06-10T13:47:45;6.97;;;5.07;;
21032;SDS011;10675;47.976;7.824;2023-06-10T13:50:11;6.53;;;4.90;;
21032;SDS011;10675;47.976;7.824;2023-06-10T13:52:38;4.55;;;4.13;;
21032;SDS011;10675;47.976;7.824;2023-06-10T13:55:03;6.43;;;4.90;;
21032;SDS011;10675;47.976;7.824;2023-06-10T13:57:29;6.93;;;4.35;;
21032;SDS011;10675;47.976;7.824;2023-06-10T13:59:55;6.63;;;4.38;;
21032;SDS011;10675;47.976;7.824;2023-06-10T14:02:21;5.57;;;4.80;;
21032;SDS011;10675;47.976;7.824;2023-06-10T14:04:47;4.88;;;4.47;;
21032;SDS011;10675;47.976;7.824;2023-06-10T14:07:12;5.20;;;4.03;;
21032;SDS011;10675;47.976;7.824;2023-06-10T14:09:38;6.63;;;4.60;;
21032;SDS011;10675;47.976;7.824;2023-06-10T14:12:04;4.40;;;4.00;;
21032;SDS011;10675;47.976;7.824;2023-06-10T14:14:30;5.63;;;4.35;;
21032;SDS011;10675;47.976;7.824;2023-06-10T14:16:58;4.47;;;4.07;;
21032;SDS011;10675;47.976;7.824;2023-06-10T14:19:23;4.78;;;4.38;;
21032;SDS011;10675;47.976;7.824;2023-06-10T14:21:49;6.80;;;4.05;;
21032;SDS011;10675;47.976;7.824;2023-06-10T14:24:14;4.25;;;3.90;;
21032;SDS011;10675;47.976;7.824;2023-06-10T14:26:40;4.50;;;4.10;;
21032;SDS011;10675;47.976;7.824;2023-06-10T14:29:05;3.60;;;3.33;;
21032;SDS011;10675;47.976;7.824;2023-06-10T14:31:32;7.00;;;4.22;;
21032;SDS011;10675;47.976;7.824;2023-06-10T14:33:57;4.10;;;3.80;;
21032;SDS011;10675;47.976;7.824;2023-06-10T14:36:23;5.40;;;3.60;;
21032;SDS011;10675;47.976;7.824;2023-06-10T14:38:49;4.22;;;3.83;;
21032;SDS011;10675;47.976;7.824;2023-06-10T14:41:14;4.50;;;3.90;;
21032;SDS011;10675;47.976;7.824;2023-06-10T14:43:40;4.50;;;4.10;;
21032;SDS011;10675;47.976;7.824;2023-06-10T14:46:06;4.03;;;3.72;;
21032;SDS011;10675;47.976;7.824;2023-06-10T14:48:31;3.50;;;3.20;;
21032;SDS011;10675;47.976;7.824;2023-06-10T14:50:57;3.90;;;3.60;;
21032;SDS011;10675;47.976;7.824;2023-06-10T14:53:22;4.25;;;3.85;;
21032;SDS011;10675;47.976;7.824;2023-06-10T14:55:48;4.15;;;3.75;;
21032;SDS011;10675;47.976;7.824;2023-06-10T14:58:13;4.20;;;3.88;;
21032;SDS011;10675;47.976;7.824;2023-06-10T15:00:39;4.07;;;3.70;;